• Join FlightAware (Why Join?)
  • Login
  • US Flag 
04:16AM EDT


 

Airport Tracker/Info


-or-


 

Live Flight TrackerFlight Track Log ✈ DAL2384 ✈ 26-Jul-2013 ✈ KSLC - KDCA

Flight Track Log - Related Links

Times and Time Zones

All times are in EDT time to prevent confusion due to time zone crossing. See the DAL2384 flight status page for this flight to view local times or setup timezone preferences in your user account.

Time Position Orientation Groundspeed Altitude Reporting Facility
EDT Latitude Longitude Course Direction KTS MPH feet Rate Location/Type
12:10PM 40.7692 -111.9978 90° East 190 219 5,200  Level Salt Lake Center
12:11PM 40.7506 -112.0664 250° West 244 281 6,800 1,680 Climbing Salt Lake Center
12:12PM 40.7978 -112.1211 319° Northwest 266 306 8,900 1,320 Climbing Salt Lake Center
12:13PM 41.0051 -112.2025 78° East  Level FlightAware Approximate
12:14PM 41.0167 -112.0166 90° East  Level FlightAware Approximate
12:14PM 40.8681 -112.2094 316° Northwest 268 308 9,900  Level Salt Lake Center
12:15PM 41.0167 -111.8289 90° East  Level FlightAware Approximate
12:15PM 40.9386 -112.2383 343° North 268 308 11,100  Level Salt Lake Center
12:16PM 41.0167 -111.6413 90° East  Level FlightAware Approximate
12:16PM 41.0106 -112.2181 12° North 279 321 13,400  Level Salt Lake Center
12:17PM 41.0228 -112.0758 83° East 344 396 14,800 1,200 Climbing Salt Lake Center
12:18PM 41.0236 -111.9331 90° East 392 451 15,900 1,380 Climbing Salt Lake Center
12:19PM 41.0253 -111.7922 89° East 416 479 17,700 1,800 Climbing Salt Lake Center
12:20PM 41.0297 -111.6042 88° East 430 495 19,700 1,740 Climbing Salt Lake Center
12:21PM 41.0436 -111.4411 84° East 445 512 21,300 1,500 Climbing Salt Lake Center
12:22PM 41.0583 -111.2744 83° East 456 525 22,900 1,500 Climbing Salt Lake Center
12:23PM 41.0731 -111.1042 83° East 465 535 24,400 1,440 Climbing Salt Lake Center
12:24PM 41.1128 -110.9225 74° East 475 547 25,900 1,320 Climbing Salt Lake Center
12:25PM 41.1539 -110.7600 71° East 484 557 27,200 1,080 Climbing Salt Lake Center
12:26PM 41.1892 -110.5583 77° East 502 578 28,200 1,020 Climbing Salt Lake Center
12:27PM 41.2006 -110.3772 85° East 515 593 29,400 1,140 Climbing Salt Lake Center
12:28PM 41.2147 -110.1647 85° East 517 595 30,600 1,200 Climbing Salt Lake Center
12:29PM 41.2264 -109.9803 85° East 523 602 31,900 1,200 Climbing Salt Lake Center
12:30PM 41.2394 -109.7650 85° East 525 604 33,100 960 Climbing Salt Lake Center
12:31PM 41.2500 -109.5794 86° East 529 609 34,000 960 Climbing Salt Lake Center
12:32PM 41.2622 -109.3625 86° East 531 611 35,200 1,080 Climbing Salt Lake Center
12:33PM 41.2717 -109.1789 86° East 530 610 36,300 840 Climbing Salt Lake Center
12:34PM 41.2842 -108.9683 85° East 524 603 37,000 300 Climbing Salt Lake Center
12:35PM 41.2944 -108.7858 86° East 523 602 37,000  Level Salt Lake Center
12:37PM 41.3058 -108.5742 86° East 519 597 37,000  Level Salt Lake Center
12:38PM 41.3153 -108.3903 86° East 522 601 37,000  Level Salt Lake Center
12:39PM 41.3256 -108.1761 86° East 522 601 37,000  Level Salt Lake Center
12:40PM 41.3342 -107.9917 86° East 524 603 37,000  Level Salt Lake Center
12:41PM 41.3444 -107.7750 86° East 527 606 37,000  Level Salt Lake Center
12:42PM 41.3522 -107.5883 87° East 529 609 37,000  Level Salt Lake Center
12:43PM 41.3611 -107.3708 87° East 529 609 37,000  Level Salt Lake Center
12:44PM 41.3692 -107.1842 87° East 530 610 37,000  Level Salt Lake Center
12:45PM 41.3767 -106.9644 87° East 532 612 37,000  Level Salt Lake Center
12:46PM 41.3833 -106.7767 87° East 531 611 37,000  Level Salt Lake Center
12:47PM 41.3897 -106.5575 88° East 532 612 37,000  Level Salt Lake Center
12:49PM 41.3994 -106.2922 87° East 533 613 37,000  Level Denver Center
12:50PM 41.4081 -106.0439 87° East 529 609 37,000  Level Denver Center
12:51PM 41.4133 -105.8272 88° East 525 604 37,000  Level Denver Center
12:52PM 41.4192 -105.6422 88° East 523 602 37,000  Level Denver Center
12:53PM 41.4236 -105.4258 88° East 525 604 37,000  Level Denver Center
12:54PM 41.4286 -105.2450 88° East 517 595 37,000  Level Denver Center
12:55PM 41.4322 -105.0267 89° East 524 603 37,000  Level Denver Center
12:56PM 41.4356 -104.8439 89° East 520 598 37,000  Level Denver Center
12:57PM 41.4392 -104.6350 89° East 509 586 37,000  Level Denver Center
12:58PM 41.4428 -104.4525 88° East 516 594 37,000  Level Denver Center
12:59PM 41.4464 -104.2403 89° East 515 593 37,000  Level Denver Center
01:00PM 41.4483 -104.0572 89° East 517 595 37,000  Level Denver Center
01:01PM 41.4503 -103.8456 89° East 515 593 37,000  Level Denver Center
01:02PM 41.4514 -103.6631 89° East 515 593 37,000  Level Denver Center
01:03PM 41.4533 -103.4489 89° East 517 595 37,000  Level Denver Center
01:04PM 41.4550 -103.2656 89° East 519 597 37,000  Level Denver Center
01:05PM 41.4561 -103.0511 90° East 519 597 37,000  Level Denver Center
01:06PM 41.4558 -102.8675 90° East 519 597 37,000  Level Denver Center
01:07PM 41.4561 -102.7139 90° East 520 598 37,000  Level Denver Center
01:08PM 41.4558 -102.4744 90° East 516 594 37,000  Level Denver Center
01:09PM 41.4553 -102.2586 90° East 519 597 37,000  Level Denver Center
01:10PM 41.4539 -102.0742 91° East 520 598 37,000  Level Denver Center
01:11PM 41.4542 -101.9208 90° East 519 597 37,000  Level Denver Center
01:12PM 41.4536 -101.6750 90° East 520 598 37,000  Level Denver Center
01:13PM 41.4506 -101.4917 91° East 517 595 37,000  Level Denver Center
01:14PM 41.4492 -101.2772 90° East 517 595 37,000  Level Denver Center
01:15PM 41.4458 -101.0939 91° East 516 594 37,000  Level Denver Center
01:16PM 41.4442 -100.8794 91° East 516 594 37,000  Level Denver Center
01:17PM 41.4378 -100.6953 93° East 517 595 37,000  Level Denver Center
01:19PM 41.3967 -100.4831 104° East 530 610 37,000  Level Denver Center
01:20PM 41.3636 -100.3031 104° East 524 603 37,000  Level Denver Center
01:21PM 41.3250 -100.0908 104° East 525 604 37,000  Level Denver Center
01:22PM 41.2919 -99.9089 104° East 527 606 37,000  Level Denver Center
01:23PM 41.2592 -99.7264 103° East 528 608 37,000  Level Denver Center
01:24PM 41.2225 -99.5133 103° East 529 609 37,000  Level Denver Center
01:25PM 41.1989 -99.3753 103° East 529 609 37,000 300 Level Denver Center
01:26PM 41.1761 -99.1086 96° East 520 598 37,700 660 Climbing Denver Center
01:27PM 41.1847 -98.9369 86° East 518 596 38,400 660 Climbing Denver Center
01:28PM 41.1908 -98.7789 87° East 516 594 39,000 300 Climbing Minneapolis Center
01:29PM 41.1919 -98.5911 89° East 512 589 39,000  Level Minneapolis Center
01:30PM 41.1939 -98.3794 89° East 503 579 39,000  Level Minneapolis Center
01:31PM 41.1978 -98.1917 88° East 505 581 39,000  Level Minneapolis Center
01:32PM 41.2047 -98.0017 87° East 514 592 39,000  Level Minneapolis Center
01:33PM 41.2108 -97.8117 87° East 515 593 39,000  Level Minneapolis Center
01:34PM 41.2156 -97.6211 88° East 516 594 39,000  Level Minneapolis Center
01:35PM 41.2208 -97.4300 88° East 518 596 39,000  Level Minneapolis Center
01:36PM 41.2256 -97.2317 88° East 518 596 39,000  Level Minneapolis Center
01:37PM 41.2300 -97.0419 88° East 517 595 39,000  Level Minneapolis Center
01:38PM 41.2353 -96.8131 88° East 517 595 39,000  Level Minneapolis Center
01:39PM 41.2394 -96.6225 88° East 519 597 39,000  Level Minneapolis Center
01:40PM 41.2433 -96.4314 88° East 519 597 39,000  Level Minneapolis Center
01:41PM 41.2469 -96.2458 88° East 520 598 39,000  Level Minneapolis Center
01:42PM 41.2494 -96.0539 89° East 521 600 39,000  Level Minneapolis Center
01:43PM 41.2519 -95.8244 89° East 518 596 39,000  Level Minneapolis Center
01:44PM 41.2533 -95.6328 89° East 520 598 39,000  Level Minneapolis Center
01:45PM 41.2550 -95.4517 89° East 518 596 39,000  Level Minneapolis Center
01:46PM 41.2581 -95.2603 89° East 519 597 39,000  Level Minneapolis Center
01:47PM 41.2597 -95.0308 89° East 519 597 39,000  Level Minneapolis Center
01:48PM 41.2597 -94.8381 90° East 521 600 39,000  Level Minneapolis Center
01:49PM 41.2600 -94.6461 90° East 521 600 39,000  Level Minneapolis Center
01:50PM 41.2583 -94.4544 91° East 520 598 39,000  Level Minneapolis Center
01:51PM 41.2594 -94.2628 89° East 519 597 39,000  Level Minneapolis Center
01:52PM 41.2592 -94.0789 90° East 520 598 39,000  Level Minneapolis Center
01:53PM 41.2592 -93.8511 90° East 518 596 39,000  Level Minneapolis Center
01:55PM 41.2569 -93.6608 91° East 518 596 39,000  Level Minneapolis Center
01:56PM 41.2558 -93.4708 90° East 518 596 39,000  Level Minneapolis Center
01:57PM 41.2558 -93.2800 90° East 519 597 39,000  Level Minneapolis Center
01:58PM 41.2533 -93.0911 91° East 517 595 39,000  Level Minneapolis Center
01:59PM 41.2503 -92.8622 91° East 515 593 39,000  Level Chicago Center
02:00PM 41.2478 -92.6722 91° East 516 594 39,000  Level Chicago Center
02:01PM 41.2447 -92.4833 91° East 514 592 39,000  Level Chicago Center
02:02PM 41.2411 -92.2808 91° East 515 593 39,000  Level Chicago Center
02:03PM 41.2378 -92.0919 91° East 518 596 39,000  Level Chicago Center
02:04PM 41.2325 -91.8750 92° East 519 597 39,000  Level Chicago Center
02:05PM 41.2289 -91.6844 91° East 520 598 39,000  Level Chicago Center
02:06PM 41.2242 -91.5158 92° East 517 595 39,000  Level Chicago Center
02:07PM 41.2186 -91.2853 92° East 520 598 39,000  Level Chicago Center
02:08PM 41.2131 -91.0944 92° East 517 595 39,000  Level Chicago Center
02:09PM 41.2083 -90.9028 92° East 520 598 39,000  Level Chicago Center
02:10PM 41.2011 -90.7108 93° East 519 597 39,000  Level Chicago Center
02:11PM 41.1958 -90.5186 92° East 520 598 39,000  Level Chicago Center
02:12PM 41.1892 -90.3258 93° East 520 598 39,000  Level Chicago Center
02:13PM 41.1811 -90.1344 93° East 517 595 39,000  Level Chicago Center
02:14PM 41.1736 -89.9008 92° East 524 603 39,000  Level Chicago Center
02:15PM 41.1658 -89.7061 93° East 525 604 39,000  Level Chicago Center
02:16PM 41.1631 -89.5106 91° East 528 608 39,000  Level Chicago Center
02:17PM 41.1644 -89.3133 89° East 534 615 39,000  Level Chicago Center
02:18PM 41.1636 -89.1261 90° East 515 593 39,000  Level Chicago Center
02:19PM 41.1664 -88.9331 89° East 522 601 39,000  Level Chicago Center
02:20PM 41.1669 -88.7039 90° East 523 602 39,000  Level Chicago Center
02:21PM 41.1686 -88.5125 89° East 522 601 39,000  Level Chicago Center
02:22PM 41.1697 -88.3208 89° East 525 604 39,000  Level Chicago Center
02:23PM 41.1689 -88.1317 90° East 522 601 39,000  Level Chicago Center
02:25PM 41.1694 -87.9036 90° East 527 606 39,000  Level Chicago Center
02:26PM 41.1694 -87.7133 90° East 527 606 39,000  Level Chicago Center
02:27PM 41.1697 -87.5217 90° East 527 606 39,000  Level Chicago Center
02:28PM 41.1678 -87.3311 91° East 523 602 39,000  Level Chicago Center
02:29PM 41.1664 -87.1019 90° East 522 601 39,000  Level Chicago Center
02:30PM 41.1644 -86.9072 91° East 528 608 39,000  Level Chicago Center
02:31PM 41.1617 -86.7164 91° East 526 605 39,000  Level Chicago Center
02:32PM 41.1444 -86.5242 97° East 536 617 39,000  Level Chicago Center
02:33PM 41.1042 -86.3408 106° East 525 604 39,000  Level Chicago Center
02:34PM 41.0611 -86.1578 107° East 523 602 39,000  Level Chicago Center
02:35PM 41.0086 -85.9403 108° East 522 601 39,000  Level Chicago Center
02:36PM 40.9644 -85.7578 108° East 522 601 39,000  Level Chicago Center
02:37PM 40.9206 -85.5789 108° East 521 600 39,000  Level Chicago Center
02:38PM 40.8783 -85.3986 107° East 519 597 39,000  Level Chicago Center
02:39PM 40.8350 -85.2206 108° East 515 593 39,000  Level Chicago Center
02:40PM 40.7828 -85.0086 108° East 511 588 39,000  Level Chicago Center
02:41PM 40.7389 -84.8331 108° East 508 585 39,000  Level Chicago Center
02:42PM 40.6953 -84.6575 108° East 507 583 39,000  Level Chicago Center
02:43PM 40.6506 -84.4819 109° East 508 585 39,000  Level Chicago Center
02:44PM 40.6061 -84.3086 109° East 504 580 39,000  Level Chicago Center
02:45PM 40.5522 -84.0989 109° East 505 581 39,000  Level Chicago Center
02:46PM 40.5083 -83.9242 108° East 505 581 39,000  Level Chicago Center
02:47PM 40.4622 -83.7522 109° East 502 578 39,000  Level Chicago Center
02:48PM 40.3964 -83.5914 118° Southeast 505 581 39,000  Level Chicago Center
02:50PM 40.2861 -83.4058 128° Southeast 500 575 39,000  Level Indianapolis Center
02:51PM 40.2000 -83.2600 128° Southeast 499 574 39,000  Level Indianapolis Center
02:52PM 40.1139 -83.1144 128° Southeast 498 573 39,000  Level Indianapolis Center
02:53PM 40.0269 -82.9708 128° Southeast 496 571 39,000  Level Indianapolis Center
02:54PM 39.9414 -82.8264 128° Southeast 496 571 39,000  Level Indianapolis Center
02:55PM 39.8547 -82.6847 129° Southeast 494 568 39,000  Level Indianapolis Center
02:56PM 39.7683 -82.5436 129° Southeast 494 568 39,000  Level Indianapolis Center
02:57PM 39.6706 -82.3756 127° Southeast 495 570 39,000  Level Indianapolis Center
02:58PM 39.6350 -82.2042 105° East 493 567 39,000  Level Indianapolis Center
02:59PM 39.6158 -82.0522 99° East 489 563 39,000  Level Indianapolis Center
03:00PM 39.5872 -81.8436 100° East 489 563 39,000  Level Indianapolis Center
03:01PM 39.5636 -81.6678 100° East 491 565 39,000  Level Indianapolis Center
03:02PM 39.5394 -81.4944 100° East 489 563 39,000  Level Indianapolis Center
03:03PM 39.5147 -81.3214 100° East 487 560 39,000  Level Indianapolis Center
03:04PM 39.4911 -81.1467 100° East 490 564 39,000  Level Indianapolis Center
03:05PM 39.4656 -80.9758 101° East 484 557 39,000 -720 Level Indianapolis Center
03:06PM 39.4408 -80.8014 100° East 491 565 37,600 -1,500 Descending Indianapolis Center
03:07PM 39.4147 -80.6228 101° East 502 578 35,900 -2,160 Descending Indianapolis Center
03:08PM 39.3836 -80.4083 101° East 503 579 33,200 -1,620 Descending Indianapolis Center
03:09PM 39.3556 -80.2253 101° East 514 592 32,600 -900 Descending Indianapolis Center
03:10PM 39.3344 -80.0703 100° East 503 579 31,600 -900 Descending Washington Center
03:11PM 39.3078 -79.8889 101° East 524 603 31,000 -300 Descending Washington Center
03:12PM 39.2889 -79.7108 98° East 519 597 31,000 -660 Level Washington Center
03:13PM 39.2739 -79.5356 96° East 505 581 29,800 -2,400 Descending Washington Center
03:14PM 39.2608 -79.3633 96° East 490 564 26,300 -2,760 Descending Washington Center
03:15PM 39.2467 -79.2097 97° East 485 558 24,300 -1,200 Descending Washington Center
03:16PM 39.2286 -79.0428 98° East 480 552 24,000 -720 Descending Washington Center
03:17PM 39.2164 -78.8842 96° East 467 537 22,900 -1,140 Descending Washington Center
03:18PM 39.1997 -78.7306 98° East 445 512 21,800 -1,440 Descending Washington Center
03:19PM 39.1867 -78.5881 97° East 421 484 20,000 -1,920 Descending Washington Center
03:20PM 39.1714 -78.4456 98° East 409 471 18,100 -1,800 Descending Washington Center
03:21PM 39.1494 -78.3108 102° East 398 458 16,500 -1,260 Descending Washington Center
03:22PM 39.1189 -78.1842 107° East 381 438 15,600 -1,140 Descending Washington Center
03:23PM 39.0881 -78.0625 108° East 363 418 14,300 -1,560 Descending Washington Center
03:24PM 39.0572 -77.9439 108° East 353 406 12,600 -1,260 Descending Washington Center
03:25PM 39.0300 -77.8336 108° East 336 387 11,900 -1,080 Descending Washington Center
03:26PM 39.0008 -77.7258 109° East 302 348 10,500 -1,080 Descending Washington Center
03:27PM 38.9814 -77.6450 107° East 269 310 9,800 -1,080 Descending Washington Center
03:28PM 38.9500 -77.5500 113° Southeast 253 291 8,400 -1,320 Descending Potomac TRACON
03:29PM 38.9500 -77.4500 90° East 253 291 7,300 -1,320 Descending Potomac TRACON
03:30PM 38.9667 -77.3667 76° East 241 277 5,800 -1,200 Descending Potomac TRACON
03:31PM 38.9667 -77.2833 90° East 234 269 5,000 -900 Descending Potomac TRACON
03:32PM 38.9667 -77.2167 90° East 210 242 4,000 -1,020 Descending Potomac TRACON